createdAt,value
2023-04-07T00:02:17.587Z,99282.78
2023-04-07T00:05:19.729Z,99274.91
2023-04-07T00:08:21.698Z,99270.56
2023-04-07T00:11:23.617Z,99270.06
2023-04-07T00:14:25.520Z,99269.06
2023-04-07T00:17:28.472Z,99267.22
2023-04-07T00:20:30.421Z,99259.34
2023-04-07T00:23:32.331Z,99257.50
2023-04-07T00:26:34.314Z,99257.34
2023-04-07T00:29:36.243Z,99259.34
2023-04-07T00:32:38.407Z,99258.34
2023-04-07T00:35:40.713Z,99264.19
2023-04-07T00:38:42.614Z,99259.69
2023-04-07T00:41:45.681Z,99261.34
2023-04-07T00:44:47.604Z,99268.38
2023-04-07T00:47:49.598Z,99271.91
2023-04-07T00:50:51.948Z,99269.06
2023-04-07T00:53:55.405Z,99271.56
2023-04-07T00:56:58.311Z,99273.25
2023-04-07T01:00:00.262Z,99279.44
2023-04-07T01:03:10.810Z,99277.94
2023-04-07T01:06:18.397Z,99276.25
2023-04-07T01:09:25.580Z,99280.59
2023-04-07T01:12:47.377Z,99269.06
2023-04-07T01:15:53.110Z,99270.91
2023-04-07T01:19:09.080Z,99275.25
2023-04-07T01:22:15.496Z,99267.22
2023-04-07T01:25:30.628Z,99259.50
2023-04-07T01:29:23.251Z,99253.63
2023-04-07T01:32:27.723Z,99256.78
2023-04-07T01:35:32.546Z,99252.09
2023-04-07T01:38:36.116Z,99266.19
2023-04-07T01:41:39.693Z,99253.13
2023-04-07T01:44:42.927Z,99267.50
2023-04-07T01:47:45.921Z,99265.16
2023-04-07T01:50:49.490Z,99260.81
2023-04-07T01:53:52.892Z,99266.84
2023-04-07T01:56:55.067Z,99270.34
2023-04-07T01:59:57.032Z,99269.69
2023-04-07T02:03:10.764Z,99271.53
2023-04-07T02:06:18.292Z,99270.34
2023-04-07T02:09:22.881Z,99273.69
2023-04-07T02:12:28.955Z,99275.72
2023-04-07T02:15:47.077Z,99278.06
2023-04-07T02:18:51.082Z,99283.41
2023-04-07T02:21:53.976Z,99285.09
2023-04-07T02:24:55.850Z,99278.56
2023-04-07T02:28:01.752Z,99280.56
2023-04-07T02:31:03.679Z,99278.03
2023-04-07T02:34:07.460Z,99277.53
2023-04-07T02:37:09.530Z,99284.91
2023-04-07T02:40:11.778Z,99286.22
2023-04-07T02:43:14.980Z,99288.91
2023-04-07T02:46:16.880Z,99286.41
2023-04-07T02:49:18.896Z,99286.22
2023-04-07T02:52:20.934Z,99285.34
2023-04-07T02:55:22.893Z,99290.88
2023-04-07T02:58:24.831Z,99292.38
2023-04-07T03:01:28.073Z,99296.75
2023-04-07T03:04:30.125Z,99296.06
2023-04-07T03:07:34.420Z,99306.44
2023-04-07T03:10:36.729Z,99298.41
2023-04-07T03:13:38.748Z,99297.56
2023-04-07T03:16:41.479Z,99297.03
2023-04-07T03:19:47.247Z,99297.69
2023-04-07T03:22:49.106Z,99300.22
2023-04-07T03:25:59.638Z,99306.41
2023-04-07T03:29:06.304Z,99304.88
2023-04-07T03:32:09.094Z,99304.22
2023-04-07T03:35:11.216Z,99301.84
2023-04-07T03:38:13.346Z,99305.34
2023-04-07T03:41:16.846Z,99313.88
2023-04-07T03:44:18.843Z,99306.19
2023-04-07T03:47:20.788Z,99302.69
2023-04-07T03:50:28.387Z,99303.69
2023-04-07T03:53:42.729Z,99303.22
2023-04-07T03:57:03.116Z,99314.09
2023-04-07T04:00:09.296Z,99307.25
2023-04-07T04:03:33.886Z,99309.25
2023-04-07T04:06:56.353Z,99303.75
2023-04-07T04:10:13.061Z,99315.13
2023-04-07T04:13:18.851Z,99324.16
2023-04-07T04:16:21.580Z,99324.16
2023-04-07T04:19:26.373Z,99324.16
2023-04-07T04:22:31.779Z,99325.84
2023-04-07T04:25:34.089Z,99325.19
2023-04-07T04:28:39.474Z,99332.72
2023-04-07T04:31:43.932Z,99340.94
2023-04-07T04:34:46.782Z,99335.56
2023-04-07T04:37:49.226Z,99324.22
2023-04-07T04:40:51.396Z,99335.09
2023-04-07T04:43:59.486Z,99337.44
2023-04-07T04:47:02.600Z,99340.31
2023-04-07T04:50:07.790Z,99333.28
2023-04-07T04:53:12.742Z,99340.31
2023-04-07T04:56:22.140Z,99339.66
2023-04-07T04:59:26.977Z,99333.81
2023-04-07T05:02:37.566Z,99336.19
2023-04-07T05:05:42.276Z,99330.28
2023-04-07T05:08:44.857Z,99324.94
2023-04-07T05:11:48.704Z,99323.81
2023-04-07T05:14:51.370Z,99331.13
2023-04-07T05:17:53.922Z,99332.34
2023-04-07T05:21:02.118Z,99323.97
2023-04-07T05:24:08.072Z,99322.81
2023-04-07T05:27:11.265Z,99322.97
2023-04-07T05:30:15.234Z,99326.16
2023-04-07T05:33:17.175Z,99331.50
2023-04-07T05:36:28.271Z,99333.16
2023-04-07T05:39:32.472Z,99326.47
2023-04-07T05:42:35.598Z,99335.00
2023-04-07T05:45:38.714Z,99338.50
2023-04-07T05:48:42.184Z,99330.78
2023-04-07T05:51:45.131Z,99332.25
2023-04-07T05:54:49.676Z,99334.44
2023-04-07T05:57:52.878Z,99334.91
2023-04-07T06:00:57.507Z,99340.75
2023-04-07T06:03:59.791Z,99340.19
2023-04-07T06:07:03.459Z,99351.06
2023-04-07T06:10:05.398Z,99336.84
2023-04-07T06:13:07.747Z,99343.34
2023-04-07T06:16:09.777Z,99346.03
2023-04-07T06:19:12.825Z,99345.63
2023-04-07T06:22:14.826Z,99343.75
2023-04-07T06:25:18.087Z,99348.53
2023-04-07T06:28:21.024Z,99354.81
2023-04-07T06:31:23.790Z,99352.50
2023-04-07T06:34:27.711Z,99361.09
2023-04-07T06:37:29.967Z,99362.16
2023-04-07T06:40:32.010Z,99371.66
2023-04-07T06:43:33.918Z,99367.41
2023-04-07T06:46:38.349Z,99372.00
2023-04-07T06:49:40.627Z,99371.94
2023-04-07T06:52:42.495Z,99367.22
2023-04-07T06:55:44.532Z,99373.38
2023-04-07T06:58:46.589Z,99371.31
2023-04-07T07:01:49.468Z,99371.78
2023-04-07T07:04:51.412Z,99376.78
2023-04-07T07:07:53.293Z,99376.94
2023-04-07T07:10:55.956Z,99370.16
2023-04-07T07:13:57.887Z,99374.13
2023-04-07T07:17:00.980Z,99370.94
2023-04-07T07:20:02.943Z,99374.66
2023-04-07T07:23:04.865Z,99365.63
2023-04-07T07:26:06.724Z,99371.13
2023-04-07T07:29:08.579Z,99367.75
2023-04-07T07:32:10.428Z,99376.53
2023-04-07T07:35:12.372Z,99368.63
2023-04-07T07:38:14.363Z,99372.28
2023-04-07T07:41:16.238Z,99377.19
2023-04-07T07:44:20.298Z,99381.47
2023-04-07T07:47:22.986Z,99382.03
2023-04-07T07:50:26.039Z,99379.66
2023-04-07T07:53:27.927Z,99380.53
2023-04-07T07:56:29.811Z,99378.09
2023-04-07T07:59:32.501Z,99365.66
2023-04-07T08:02:34.609Z,99368.38
2023-04-07T08:05:36.528Z,99375.34
2023-04-07T08:08:38.623Z,99384.50
2023-04-07T08:11:40.784Z,99381.41
2023-04-07T08:14:42.706Z,99383.72
2023-04-07T08:17:44.666Z,99385.44
2023-04-07T08:20:46.865Z,99393.25
2023-04-07T08:23:49.012Z,99383.72
2023-04-07T08:26:51.011Z,99392.81
2023-04-07T08:30:07.365Z,99396.22
2023-04-07T08:33:09.509Z,99394.50
2023-04-07T08:36:11.765Z,99403.03
2023-04-07T08:39:13.861Z,99394.03
2023-04-07T08:42:17.496Z,99398.63
2023-04-07T08:45:19.739Z,99393.84
2023-04-07T08:48:23.967Z,99393.66
2023-04-07T08:51:31.856Z,99393.84
2023-04-07T08:54:35.201Z,99401.13
2023-04-07T08:57:38.236Z,99402.16
2023-04-07T09:00:46.024Z,99409.63
2023-04-07T09:03:50.067Z,99405.63
2023-04-07T09:06:52.284Z,99414.97
2023-04-07T09:09:55.604Z,99417.22
2023-04-07T09:12:59.682Z,99411.13
2023-04-07T09:16:03.261Z,99416.41
2023-04-07T09:19:06.471Z,99420.47
2023-04-07T09:22:12.565Z,99429.09
2023-04-07T09:25:19.964Z,99428.31
2023-04-07T09:28:23.103Z,99436.00
2023-04-07T09:31:50.884Z,99431.84
2023-04-07T09:35:00.011Z,99428.97
2023-04-07T09:38:06.997Z,99412.72
2023-04-07T09:41:17.994Z,99383.06
2023-04-07T09:44:23.107Z,99369.03
2023-04-07T09:47:31.553Z,99372.47
2023-04-07T09:50:35.646Z,99371.97
2023-04-07T09:53:49.959Z,99371.66
2023-04-07T09:56:52.130Z,99370.16
2023-04-07T09:59:55.650Z,99374.88
2023-04-07T10:02:59.033Z,99369.59
2023-04-07T10:06:02.145Z,99381.72
2023-04-07T10:09:04.094Z,99376.84
2023-04-07T10:12:07.086Z,99382.75
2023-04-07T10:15:12.668Z,99381.28
2023-04-07T10:18:15.377Z,99378.00
2023-04-07T10:21:18.301Z,99368.09
2023-04-07T10:25:06.496Z,99368.16
2023-04-07T10:28:12.012Z,99358.19
2023-04-07T10:31:14.221Z,99357.59
2023-04-07T10:34:16.364Z,99358.84
2023-04-07T10:37:21.337Z,99356.28
2023-04-07T10:40:30.378Z,99356.09
2023-04-07T10:43:40.928Z,99350.75
2023-04-07T10:46:45.964Z,99348.34
2023-04-07T10:50:24.170Z,99343.00
2023-04-07T10:53:26.019Z,99343.41
2023-04-07T10:57:02.931Z,99347.78
2023-04-07T11:00:11.541Z,99333.78
2023-04-07T11:03:14.326Z,99333.53
2023-04-07T11:06:16.347Z,99331.88
2023-04-07T11:09:21.404Z,99330.56
2023-04-07T11:12:24.641Z,99329.22
2023-04-07T11:15:27.239Z,99314.53
2023-04-07T11:18:29.168Z,99315.53
2023-04-07T11:21:31.171Z,99307.56
2023-04-07T11:24:39.475Z,99309.59
2023-04-07T11:27:41.492Z,99299.06
2023-04-07T11:30:51.607Z,99301.94
2023-04-07T11:34:00.141Z,99295.59
2023-04-07T11:37:22.201Z,99298.03
2023-04-07T11:40:35.161Z,99299.00
2023-04-07T11:43:37.908Z,99281.75
2023-04-07T11:46:59.748Z,99287.97
2023-04-07T11:50:01.801Z,99271.97
2023-04-07T11:53:03.759Z,99265.25
2023-04-07T11:56:06.138Z,99274.16
2023-04-07T11:59:08.067Z,99278.00
2023-04-07T12:02:10.359Z,99281.13
2023-04-07T12:05:12.518Z,99280.56
2023-04-07T12:08:19.785Z,99286.13
2023-04-07T12:11:21.633Z,99278.75
2023-04-07T12:14:24.643Z,99289.63
2023-04-07T12:17:27.272Z,99280.75
2023-04-07T12:20:29.400Z,99292.41
2023-04-07T12:23:31.477Z,99288.03
2023-04-07T12:26:33.395Z,99294.84
2023-04-07T12:29:35.360Z,99287.09
2023-04-07T12:32:38.071Z,99285.16
2023-04-07T12:35:40.581Z,99291.13
2023-04-07T12:38:42.531Z,99278.31
2023-04-07T12:41:46.097Z,99391.63
2023-04-07T12:44:48.110Z,99387.44
2023-04-07T12:47:50.041Z,99373.41
2023-04-07T12:50:52.217Z,99358.53
2023-04-07T12:53:54.392Z,99364.91
2023-04-07T12:56:57.284Z,99363.44
2023-04-07T12:59:59.240Z,99364.94
2023-04-07T13:03:01.676Z,99354.22
2023-04-07T13:06:04.623Z,99360.09
2023-04-07T13:09:06.517Z,99358.69
2023-04-07T13:12:08.347Z,99352.56
2023-04-07T13:15:10.677Z,99337.50
2023-04-07T13:18:12.634Z,99335.28
2023-04-07T13:24:21.353Z,99321.44
2023-04-07T13:27:23.484Z,99313.56
2023-04-07T13:30:26.485Z,99319.50
2023-04-07T13:33:28.332Z,99329.34
2023-04-07T13:36:30.496Z,99334.28
2023-04-07T13:39:33.269Z,99341.06
2023-04-07T13:42:35.066Z,99367.16
2023-04-07T13:45:37.029Z,99367.72
2023-04-07T13:48:38.966Z,99373.19
2023-04-07T13:51:41.540Z,99386.00
2023-04-07T13:54:44.177Z,99393.06
2023-04-07T13:57:46.587Z,99392.50
2023-04-07T14:00:48.418Z,99404.59
2023-04-07T14:03:50.641Z,99400.69
2023-04-07T14:06:53.423Z,99402.81
2023-04-07T14:09:55.648Z,99397.41
2023-04-07T14:12:57.716Z,99397.03
2023-04-07T14:15:59.668Z,99400.41
2023-04-07T14:19:01.666Z,99391.94
2023-04-07T14:22:03.578Z,99393.13
2023-04-07T14:25:06.086Z,99395.09
2023-04-07T14:28:08.278Z,99396.28
2023-04-07T14:31:15.914Z,99389.50
2023-04-07T14:34:17.972Z,99387.00
2023-04-07T14:37:24.150Z,99382.25
2023-04-07T14:40:26.384Z,99389.25
2023-04-07T14:43:30.507Z,99401.41
2023-04-07T14:46:33.481Z,99406.53
2023-04-07T14:49:35.387Z,99409.31
2023-04-07T14:52:37.554Z,99426.22
2023-04-07T14:55:41.533Z,99431.06
2023-04-07T14:58:43.371Z,99426.31
2023-04-07T15:01:45.470Z,99424.66
2023-04-07T15:04:47.563Z,99416.75
2023-04-07T15:07:52.726Z,99424.56
2023-04-07T15:10:54.624Z,99421.38
2023-04-07T15:13:56.680Z,99410.78
2023-04-07T15:16:58.638Z,99417.56
2023-04-07T15:20:00.543Z,99422.97
2023-04-07T15:23:02.544Z,99425.84
2023-04-07T15:26:08.087Z,99420.53
2023-04-07T15:29:09.993Z,99421.81
2023-04-07T15:32:11.873Z,99416.31
2023-04-07T15:35:13.658Z,99421.53
2023-04-07T15:38:15.925Z,99418.47
2023-04-07T15:41:17.991Z,99414.56
2023-04-07T15:44:20.307Z,99425.72
2023-04-07T15:47:22.310Z,99420.22
2023-04-07T15:50:25.101Z,99421.41
2023-04-07T15:53:27.846Z,99427.63
2023-04-07T15:56:29.716Z,99434.78
2023-04-07T15:59:31.768Z,99444.38
2023-04-07T16:02:33.955Z,99443.72
2023-04-07T16:05:38.124Z,99453.09
2023-04-07T16:08:40.055Z,99450.41
2023-04-07T16:11:41.965Z,99454.47
2023-04-07T16:14:44.293Z,99461.72
2023-04-07T16:17:48.049Z,99461.41
2023-04-07T16:20:50.043Z,99464.63
2023-04-07T16:23:51.920Z,99467.75
2023-04-07T16:26:55.889Z,99482.44
2023-04-07T16:29:57.863Z,99474.25
2023-04-07T16:33:00.668Z,99472.75
2023-04-07T16:36:02.698Z,99477.28
2023-04-07T16:39:05.294Z,99482.00
2023-04-07T16:42:07.169Z,99482.00
2023-04-07T16:45:09.398Z,99484.69
2023-04-07T16:48:11.298Z,99483.69
2023-04-07T16:51:20.618Z,99490.91
2023-04-07T16:54:22.459Z,99500.16
2023-04-07T16:57:24.445Z,99500.34
2023-04-07T17:00:26.396Z,99510.25
2023-04-07T17:03:28.487Z,99515.16
2023-04-07T17:06:30.609Z,99480.66
2023-04-07T17:09:32.902Z,99490.91
2023-04-07T17:12:34.836Z,99510.91
2023-04-07T17:15:38.194Z,99513.28
2023-04-07T17:18:40.411Z,99520.66
2023-04-07T17:21:42.339Z,99529.06
2023-04-07T17:24:44.224Z,99524.22
2023-04-07T17:27:48.097Z,99534.31
2023-04-07T17:30:50.215Z,99517.03
2023-04-07T17:33:52.185Z,99525.75
2023-04-07T17:36:54.070Z,99533.34
2023-04-07T17:39:56.092Z,99530.31
2023-04-07T17:42:59.224Z,99535.19
2023-04-07T17:46:01.096Z,99548.78
2023-04-07T17:49:03.902Z,99554.00
2023-04-07T17:52:05.657Z,99554.50
2023-04-07T17:55:08.512Z,99551.47
2023-04-07T17:58:10.288Z,99554.84
2023-04-07T18:01:12.336Z,99547.47
2023-04-07T18:04:14.915Z,99554.50
2023-04-07T18:07:17.835Z,99546.63
2023-04-07T18:10:19.867Z,99547.94
2023-04-07T18:13:21.739Z,99555.16
2023-04-07T18:16:23.759Z,99546.44
2023-04-07T18:19:25.737Z,99539.72
2023-04-07T18:22:28.338Z,99544.41
2023-04-07T18:25:30.261Z,99545.78
2023-04-07T18:28:32.677Z,99546.09
2023-04-07T18:31:34.639Z,99540.72
2023-04-07T18:34:36.600Z,99535.88
2023-04-07T18:37:38.497Z,99546.59
2023-04-07T18:40:40.407Z,99536.03
2023-04-07T18:43:42.447Z,99537.03
2023-04-07T18:46:46.171Z,99540.72
2023-04-07T18:49:48.564Z,99540.06
2023-04-07T18:52:50.504Z,99541.56
2023-04-07T18:55:52.633Z,99530.00
2023-04-07T18:58:54.656Z,99535.69
2023-04-07T19:01:57.094Z,99533.84
2023-04-07T19:04:59.450Z,99533.69
2023-04-07T19:08:01.382Z,99543.09
2023-04-07T19:11:03.823Z,99539.22
2023-04-07T19:14:06.128Z,99544.59
2023-04-07T19:17:08.151Z,99542.75
2023-04-07T19:20:10.654Z,99534.69
2023-04-07T19:23:12.505Z,99540.72
2023-04-07T19:26:14.588Z,99541.56
2023-04-07T19:29:16.519Z,99547.94
2023-04-07T19:32:18.588Z,99544.59
2023-04-07T19:35:20.652Z,99545.25
2023-04-07T19:38:22.670Z,99545.59
2023-04-07T19:41:24.616Z,99544.94
2023-04-07T19:44:27.303Z,99550.47
2023-04-07T19:47:29.295Z,99544.59
2023-04-07T19:50:31.695Z,99544.25
2023-04-07T19:53:33.591Z,99550.13
2023-04-07T19:56:35.443Z,99548.47
2023-04-07T19:59:37.357Z,99546.94
2023-04-07T20:02:39.409Z,99554.50
2023-04-07T20:05:42.399Z,99551.31
2023-04-07T20:08:44.420Z,99548.78
2023-04-07T20:11:46.641Z,99544.94
2023-04-07T20:14:48.813Z,99549.13
2023-04-07T20:17:51.841Z,99550.81
2023-04-07T20:21:02.245Z,99542.75
2023-04-07T20:24:04.394Z,99553.31
2023-04-07T20:27:06.288Z,99554.50
2023-04-07T20:30:09.150Z,99558.19
2023-04-07T20:33:10.966Z,99548.94
2023-04-07T20:36:12.953Z,99555.50
2023-04-07T20:39:15.506Z,99554.00
2023-04-07T20:42:17.731Z,99558.50
2023-04-07T20:45:21.767Z,99544.09
2023-04-07T20:48:24.217Z,99549.47
2023-04-07T20:51:26.131Z,99541.91
2023-04-07T20:54:29.886Z,99541.91
2023-04-07T20:57:32.096Z,99549.28
2023-04-07T21:00:33.930Z,99548.78
2023-04-07T21:03:36.630Z,99550.28
2023-04-07T21:06:38.637Z,99543.56
2023-04-07T21:09:41.471Z,99545.41
2023-04-07T21:12:43.181Z,99548.59
2023-04-07T21:15:45.234Z,99543.91
2023-04-07T21:18:47.377Z,99542.06
2023-04-07T21:21:49.460Z,99554.47
2023-04-07T21:24:53.452Z,99548.09
2023-04-07T21:27:57.069Z,99546.09
2023-04-07T21:30:59.380Z,99552.13
2023-04-07T21:34:01.337Z,99550.28
2023-04-07T21:37:03.378Z,99559.34
2023-04-07T21:40:06.402Z,99552.78
2023-04-07T21:43:09.176Z,99545.75
2023-04-07T21:46:11.677Z,99547.44
2023-04-07T21:49:21.973Z,99544.75
2023-04-07T21:52:23.997Z,99543.41
2023-04-07T21:55:25.852Z,99552.63
2023-04-07T21:58:27.720Z,99547.78
2023-04-07T22:01:29.606Z,99553.66
2023-04-07T22:04:32.147Z,99550.28
2023-04-07T22:07:34.114Z,99542.06
2023-04-07T22:10:36.100Z,99547.13
2023-04-07T22:13:38.111Z,99549.28
2023-04-07T22:16:40.399Z,99549.81
2023-04-07T22:19:42.487Z,99550.47
2023-04-07T22:22:44.428Z,99547.44
2023-04-07T22:25:46.386Z,99555.00
2023-04-07T22:28:48.420Z,99549.97
2023-04-07T22:31:50.554Z,99549.47
2023-04-07T22:34:52.441Z,99549.63
2023-04-07T22:37:54.305Z,99546.59
2023-04-07T22:40:56.321Z,99547.13
2023-04-07T22:43:58.294Z,99546.44
2023-04-07T22:47:00.278Z,99547.78
2023-04-07T22:50:02.300Z,99549.13
2023-04-07T22:53:04.195Z,99552.28
2023-04-07T22:56:06.607Z,99550.28
2023-04-07T22:59:08.503Z,99536.19
2023-04-07T23:02:11.461Z,99549.09
2023-04-07T23:05:13.503Z,99545.91
2023-04-07T23:08:15.540Z,99542.88
2023-04-07T23:11:17.495Z,99539.84
2023-04-07T23:14:19.561Z,99540.19
2023-04-07T23:17:21.808Z,99535.31
2023-04-07T23:20:23.762Z,99538.84
2023-04-07T23:23:25.836Z,99539.00
2023-04-07T23:26:28.774Z,99546.38
2023-04-07T23:29:30.838Z,99542.00
2023-04-07T23:32:32.857Z,99540.66
2023-04-07T23:35:34.833Z,99540.66
2023-04-07T23:38:36.747Z,99536.13
2023-04-07T23:41:39.766Z,99538.81
2023-04-07T23:44:41.600Z,99539.66
2023-04-07T23:47:43.483Z,99543.34
2023-04-07T23:50:46.196Z,99549.03
2023-04-07T23:53:48.076Z,99538.31
2023-04-07T23:56:50.010Z,99537.63
2023-04-07T23:59:51.929Z,99537.94
